Time;durP1;ratioP1;P1;durP2;ratioP2;P2;SDS_P1;SDS_P2;PMS_P1;PMS_P2;Temp;Humidity;BMP_temperature;BMP_pressure;BME280_temperature;BME280_humidity;BME280_pressure;Samples;Min_cycle;Max_cycle;Signal;HPM_P1;HPM_P2
2024/04/01 00:01:09;;;;;;;7.53;3.57;;;;;;;13.26;71.09;96735.28;5093814;28;41218;-77
2024/04/01 00:03:36;;;;;;;6.97;3.30;;;;;;;13.22;71.05;96712.69;5094374;28;40184;-78
2024/04/01 00:06:03;;;;;;;6.57;2.80;;;;;;;13.32;70.93;96728.47;5095189;28;41828;-78
2024/04/01 00:08:30;;;;;;;11.17;3.07;;;;;;;13.32;70.77;96733.78;5094917;28;43819;-78
2024/04/01 00:10:58;;;;;;;5.33;3.43;;;;;;;13.32;70.75;96715.19;5094928;28;42295;-77
2024/04/01 00:13:25;;;;;;;10.67;3.50;;;;;;;13.32;74.52;96696.59;5094808;28;40889;-78
2024/04/01 00:15:53;;;;;;;11.43;4.13;;;;;;;13.29;75.22;96687.09;5093566;28;41599;-78
2024/04/01 00:18:19;;;;;;;8.50;4.40;;;;;;;13.24;73.94;96671.66;5093087;28;44505;-77
2024/04/01 00:20:56;;;;;;;8.17;3.77;;;;;;;13.34;73.63;96689.28;5076703;28;42163;-77
2024/04/01 00:23:23;;;;;;;7.97;3.73;;;;;;;13.28;73.02;96664.19;5093628;28;39670;-77
2024/04/01 00:25:50;;;;;;;6.37;3.40;;;;;;;13.28;72.94;96686.28;5076577;28;40427;-78
2024/04/01 00:28:18;;;;;;;5.77;3.20;;;;;;;13.38;72.57;96717.16;5093217;28;41742;-77
2024/04/01 00:30:46;;;;;;;8.50;3.30;;;;;;;13.39;72.71;96724.97;5093394;28;42171;-78
2024/04/01 00:33:12;;;;;;;6.10;3.07;;;;;;;13.40;72.12;96725.81;5094667;28;40975;-77
2024/04/01 00:35:40;;;;;;;7.57;3.37;;;;;;;13.40;72.28;96725.81;5127644;27;42472;-77
2024/04/01 00:38:06;;;;;;;3.27;2.70;;;;;;;13.42;72.00;96729.97;5094336;28;42740;-78
2024/04/01 00:40:35;;;;;;;7.17;3.23;;;;;;;13.42;71.93;96731.81;5093372;28;41999;-77
2024/04/01 00:43:06;;;;;;;6.20;3.60;;;;;;;13.41;72.25;96717.69;5127554;27;40984;-77
2024/04/01 00:45:39;;;;;;;8.60;3.50;;;;;;;13.41;72.26;96727.47;5110128;28;40727;-78
2024/04/01 00:48:07;;;;;;;6.70;3.17;;;;;;;13.36;72.30;96729.78;5076285;28;43173;-78
2024/04/01 00:50:37;;;;;;;7.87;3.40;;;;;;;13.33;72.33;96736.28;5076325;28;40982;-77
2024/04/01 00:53:06;;;;;;;7.43;3.27;;;;;;;13.32;72.06;96728.47;5093086;28;39107;-77
2024/04/01 00:55:35;;;;;;;5.83;3.63;;;;;;;13.32;72.07;96728.47;5076222;28;40780;-78
2024/04/01 00:58:02;;;;;;;5.70;3.27;;;;;;;13.20;72.58;96707.53;5092487;28;41961;-78
2024/04/01 01:00:30;;;;;;;4.83;3.43;;;;;;;13.31;72.45;96709.03;5076007;28;41182;-78
2024/04/01 01:02:59;;;;;;;12.47;3.53;;;;;;;13.30;72.75;96707.38;5094096;28;39874;-78
2024/04/01 01:05:28;;;;;;;8.27;3.37;;;;;;;13.30;73.82;96694.91;5094260;28;41325;-77
2024/04/01 01:07:55;;;;;;;8.30;3.40;;;;;;;13.34;74.04;96678.66;5109302;28;44602;-78
2024/04/01 01:10:24;;;;;;;5.37;3.37;;;;;;;13.22;73.61;96652.41;5092837;28;41299;-77
2024/04/01 01:12:50;;;;;;;10.30;3.43;;;;;;;13.38;73.80;96671.97;5075655;28;39222;-78
2024/04/01 01:15:18;;;;;;;6.33;3.63;;;;;;;13.36;74.51;96666.81;5092553;28;42066;-77
2024/04/01 01:17:45;;;;;;;10.27;3.77;;;;;;;13.36;76.14;96689.91;5126842;27;42799;-77
2024/04/01 01:20:14;;;;;;;7.40;3.20;;;;;;;13.34;77.28;96686.63;5092447;28;43061;-77
2024/04/01 01:22:42;;;;;;;7.60;3.37;;;;;;;13.32;78.18;96676.16;5092702;28;39942;-78
2024/04/01 01:25:11;;;;;;;7.03;3.23;;;;;;;13.35;77.01;96659.03;5092526;28;40622;-78
2024/04/01 01:27:39;;;;;;;9.77;3.87;;;;;;;13.36;77.62;96623.47;5075709;28;41745;-77
2024/04/01 01:30:14;;;;;;;8.03;3.23;;;;;;;13.32;77.49;96606.22;5092370;28;41451;-78
2024/04/01 01:32:42;;;;;;;8.57;3.30;;;;;;;13.27;78.64;96590.75;5090249;28;39945;-78
2024/04/01 01:35:10;;;;;;;7.10;3.33;;;;;;;13.22;79.61;96611.72;5093856;28;41836;-77
2024/04/01 01:37:37;;;;;;;9.27;3.53;;;;;;;13.13;83.66;96594.88;5091940;28;44984;-77
2024/04/01 01:40:08;;;;;;;7.47;4.23;;;;;;;13.02;83.53;96573.97;5093490;28;42079;-77
2024/04/01 01:42:35;;;;;;;7.60;3.37;;;;;;;13.03;83.34;96580.94;5089969;28;39652;-78
2024/04/01 01:45:04;;;;;;;8.77;3.50;;;;;;;13.00;83.04;96578.63;5093611;28;41728;-78
2024/04/01 01:47:31;;;;;;;9.23;3.43;;;;;;;13.02;82.33;96566.00;5092282;28;41772;-78
2024/04/01 01:49:59;;;;;;;9.00;3.37;;;;;;;12.85;82.40;96525.34;5093617;28;43198;-78
2024/04/01 01:52:26;;;;;;;8.33;3.33;;;;;;;13.07;82.18;96541.59;5091953;28;40982;-78
2024/04/01 01:54:54;;;;;;;8.63;3.27;;;;;;;13.09;81.68;96532.47;5091999;28;42190;-77
2024/04/01 01:57:22;;;;;;;6.93;3.17;;;;;;;13.11;80.92;96525.13;5092185;28;42859;-78
2024/04/01 01:59:49;;;;;;;10.33;2.93;;;;;;;13.11;81.54;96511.00;5093142;28;42239;-78
2024/04/01 02:02:17;;;;;;;6.00;3.00;;;;;;;13.10;81.78;96486.31;5092681;28;39742;-78
2024/04/01 02:04:45;;;;;;;7.57;2.67;;;;;;;13.12;82.26;96476.31;5090131;28;42598;-77
2024/04/01 02:07:11;;;;;;;9.27;2.83;;;;;;;13.12;82.47;96500.22;5108633;28;44219;-78
2024/04/01 02:09:39;;;;;;;5.70;2.53;;;;;;;13.01;82.09;96471.34;5091298;28;43864;-77
2024/04/01 02:12:07;;;;;;;7.60;2.90;;;;;;;13.16;82.35;96501.56;5108989;28;38393;-78
2024/04/01 02:14:37;;;;;;;11.50;3.33;;;;;;;13.20;82.07;96488.78;5093045;28;41679;-78
2024/04/01 02:17:04;;;;;;;11.60;2.60;;;;;;;13.26;81.21;96496.91;5108596;28;41929;-78
2024/04/01 02:19:32;;;;;;;7.97;2.50;;;;;;;13.28;81.38;96508.19;5092009;28;42535;-77
2024/04/01 02:21:59;;;;;;;6.47;2.60;;;;;;;13.33;81.64;96496.22;5091557;28;40985;-78
2024/04/01 02:24:26;;;;;;;8.37;2.70;;;;;;;13.34;80.92;96487.25;5093022;28;41909;-77
2024/04/01 02:26:53;;;;;;;11.77;2.63;;;;;;;13.36;80.83;96464.81;5074469;28;42608;-78
2024/04/01 02:29:21;;;;;;;9.77;3.10;;;;;;;13.27;81.00;96479.97;5125491;27;42522;-78
2024/04/01 02:31:49;;;;;;;12.93;3.47;;;;;;;13.25;80.61;96489.94;5091557;28;39087;-78
2024/04/01 02:34:17;;;;;;;7.37;2.33;;;;;;;13.43;80.52;96515.47;5074654;28;42092;-78
2024/04/01 02:36:43;;;;;;;8.00;2.60;;;;;;;13.47;79.79;96508.81;5125505;27;43845;-78
2024/04/01 02:39:16;;;;;;;8.23;3.57;;;;;;;13.39;82.10;96504.34;5125868;27;42433;-78
2024/04/01 02:41:43;;;;;;;13.13;3.07;;;;;;;13.50;81.30;96524.41;5088530;28;40922;-77
2024/04/01 02:44:10;;;;;;;9.10;2.70;;;;;;;13.52;80.99;96530.38;5125361;27;42245;-78
2024/04/01 02:46:37;;;;;;;9.87;2.77;;;;;;;13.55;79.78;96528.22;5091148;28;41933;-78
2024/04/01 02:49:06;;;;;;;10.70;2.97;;;;;;;13.58;79.40;96516.44;5092409;28;43218;-77
2024/04/01 02:51:33;;;;;;;4.87;2.63;;;;;;;13.57;79.61;96531.56;5091570;28;40916;-78
2024/04/01 02:54:01;;;;;;;8.33;3.00;;;;;;;13.58;80.30;96549.16;5092104;28;42651;-78
2024/04/01 02:56:28;;;;;;;10.20;3.17;;;;;;;13.57;79.61;96525.41;5092357;28;42888;-77
2024/04/01 02:58:55;;;;;;;7.23;2.13;;;;;;;13.56;79.57;96513.09;5090835;28;43113;-79
2024/04/01 03:01:21;;;;;;;5.50;2.00;;;;;;;13.56;79.43;96491.84;5092364;28;40207;-78
2024/04/01 03:03:49;;;;;;;7.73;3.07;;;;;;;13.53;79.84;96470.91;5090944;28;40634;-78
2024/04/01 03:06:17;;;;;;;8.60;2.83;;;;;;;13.47;81.36;96503.50;5092190;28;42781;-78
2024/04/01 03:08:46;;;;;;;11.20;2.73;;;;;;;13.34;81.83;96487.25;5090949;28;42256;-78
2024/04/01 03:11:13;;;;;;;11.10;2.43;;;;;;;13.35;81.96;96457.03;5074372;28;38312;-78
2024/04/01 03:13:41;;;;;;;9.23;3.07;;;;;;;13.26;83.53;96449.06;5124852;27;41739;-77
2024/04/01 03:16:07;;;;;;;10.03;2.83;;;;;;;13.12;83.17;96414.34;5073957;28;41856;-78
2024/04/01 03:18:35;;;;;;;10.63;2.80;;;;;;;13.22;82.87;96452.25;5073954;28;42231;-78
2024/04/01 03:21:02;;;;;;;10.60;2.80;;;;;;;13.15;83.23;96398.94;5095682;28;40747;-78
2024/04/01 03:23:31;;;;;;;7.03;3.30;;;;;;;13.05;83.00;96398.28;5094502;28;41866;-77
2024/04/01 03:25:58;;;;;;;7.10;2.20;;;;;;;13.15;82.54;96424.69;5111549;28;42126;-78
2024/04/01 03:28:25;;;;;;;12.23;2.77;;;;;;;13.16;82.03;96429.00;5095544;28;42337;-78
2024/04/01 03:30:53;;;;;;;9.47;2.63;;;;;;;13.17;82.43;96444.78;5095667;28;41163;-78
2024/04/01 03:33:21;;;;;;;7.43;2.40;;;;;;;13.01;82.87;96402.28;5095575;28;42444;-78
2024/04/01 03:35:54;;;;;;;8.10;3.20;;;;;;;13.24;81.94;96445.75;5094444;28;42584;-77
2024/04/01 03:38:21;;;;;;;9.33;3.20;;;;;;;13.28;81.72;96449.72;5077077;28;42644;-78
2024/04/01 03:40:51;;;;;;;7.83;2.93;;;;;;;13.34;81.15;96450.06;5094473;28;40668;-77
2024/04/01 03:43:19;;;;;;;12.63;3.43;;;;;;;13.22;81.40;96438.97;5111230;28;42723;-77
2024/04/01 03:45:46;;;;;;;8.13;2.63;;;;;;;13.34;80.98;96453.53;5077140;28;44687;-78
2024/04/01 03:48:13;;;;;;;9.20;2.93;;;;;;;13.38;80.81;96435.41;5077384;28;41711;-79
2024/04/01 03:50:43;;;;;;;7.10;2.30;;;;;;;13.37;80.56;96404.50;5094328;28;40467;-77
2024/04/01 03:53:10;;;;;;;12.13;2.70;;;;;;;13.39;81.30;96410.47;5093944;28;40736;-78
2024/04/01 03:55:37;;;;;;;7.97;2.60;;;;;;;13.38;80.60;96409.66;5094217;28;42726;-78
2024/04/01 03:58:06;;;;;;;9.30;2.83;;;;;;;13.40;81.33;96417.44;5128031;27;43124;-77
2024/04/01 04:00:34;;;;;;;9.33;2.70;;;;;;;13.39;80.70;96413.97;5076985;28;39335;-78
2024/04/01 04:03:02;;;;;;;5.93;2.57;;;;;;;13.35;80.50;96403.88;5075924;28;42371;-77
2024/04/01 04:05:30;;;;;;;9.43;2.87;;;;;;;13.35;80.85;96393.22;5093761;28;43164;-77
2024/04/01 04:07:56;;;;;;;8.43;2.80;;;;;;;13.20;80.86;96375.34;5093358;28;42419;-78
2024/04/01 04:10:23;;;;;;;5.83;2.10;;;;;;;13.33;81.10;96401.38;5093898;28;40115;-77
2024/04/01 04:12:50;;;;;;;7.97;2.27;;;;;;;13.34;80.50;96407.53;5094584;28;41926;-77
2024/04/01 04:15:19;;;;;;;8.27;1.97;;;;;;;13.34;80.09;96412.84;5093394;28;42841;-77
2024/04/01 04:17:45;;;;;;;7.30;2.47;;;;;;;13.34;79.84;96407.53;5093415;28;42741;-77
2024/04/01 04:20:13;;;;;;;7.77;2.50;;;;;;;13.32;79.58;96393.56;5093698;28;39577;-77
2024/04/01 04:22:39;;;;;;;9.73;3.03;;;;;;;13.23;80.78;96390.09;5110217;28;41042;-77
2024/04/01 04:25:07;;;;;;;11.73;3.13;;;;;;;12.99;81.73;96348.47;5093684;28;42799;-77
2024/04/01 04:27:34;;;;;;;7.20;2.73;;;;;;;13.33;81.58;96413.84;5093263;28;42745;-77
2024/04/01 04:30:01;;;;;;;5.97;2.53;;;;;;;13.34;81.28;96426.97;5094982;28;39697;-77
2024/04/01 04:32:29;;;;;;;7.67;2.50;;;;;;;13.36;80.51;96411.63;5092637;28;40722;-78
2024/04/01 04:34:57;;;;;;;6.10;2.20;;;;;;;13.39;80.56;96416.63;5094901;28;42986;-78
2024/04/01 04:37:23;;;;;;;6.83;2.60;;;;;;;13.40;80.49;96444.88;5092909;28;41378;-77
2024/04/01 04:39:51;;;;;;;10.87;2.83;;;;;;;13.03;80.82;96384.34;5093555;28;40012;-77
2024/04/01 04:42:18;;;;;;;10.33;2.67;;;;;;;12.97;80.50;96369.09;5092967;28;42808;-77
2024/04/01 04:44:46;;;;;;;5.67;2.30;;;;;;;13.40;79.98;96412.13;5093077;28;41742;-77
2024/04/01 04:47:12;;;;;;;5.53;1.97;;;;;;;13.41;79.87;96419.09;5093025;28;42505;-77
2024/04/01 04:49:41;;;;;;;4.67;2.43;;;;;;;13.41;79.69;96413.78;5093297;28;38634;-78
2024/04/01 04:52:08;;;;;;;6.10;2.63;;;;;;;13.42;79.85;96431.41;5094086;28;42260;-77
2024/04/01 04:54:35;;;;;;;6.73;2.30;;;;;;;13.32;79.40;96417.50;5092907;28;41225;-78
2024/04/01 04:57:02;;;;;;;6.77;2.40;;;;;;;13.44;79.21;96437.38;5094119;28;42180;-77
2024/04/01 04:59:29;;;;;;;7.73;2.83;;;;;;;13.45;78.89;96436.38;5109791;28;40067;-78
2024/04/01 05:01:56;;;;;;;7.20;2.73;;;;;;;13.46;79.26;96427.41;5093028;28;42073;-78
2024/04/01 05:04:23;;;;;;;5.07;1.97;;;;;;;13.46;78.92;96424.75;5075906;28;42928;-78
2024/04/01 05:06:51;;;;;;;6.13;2.10;;;;;;;13.47;79.14;96429.06;5092912;28;42250;-77
2024/04/01 05:09:18;;;;;;;6.90;2.30;;;;;;;13.45;79.11;96420.44;5093790;28;40662;-77
2024/04/01 05:11:45;;;;;;;7.53;2.47;;;;;;;13.38;79.09;96382.22;5092545;28;43018;-77
2024/04/01 05:14:12;;;;;;;4.70;1.93;;;;;;;13.34;78.96;96395.06;5093372;28;43162;-77
2024/04/01 05:16:38;;;;;;;5.10;2.27;;;;;;;13.42;78.91;96415.44;5126399;27;42996;-78
2024/04/01 05:19:07;;;;;;;4.97;2.13;;;;;;;13.46;78.82;96430.06;5092226;28;40048;-76
2024/04/01 05:21:33;;;;;;;4.90;2.10;;;;;;;13.47;78.80;96413.13;5126644;27;41895;-77
2024/04/01 05:24:03;;;;;;;3.97;1.97;;;;;;;13.47;78.94;96398.00;5075511;28;41562;-78
2024/04/01 05:26:30;;;;;;;8.37;2.77;;;;;;;13.46;79.08;96408.78;5092134;28;43147;-77
2024/04/01 05:28:58;;;;;;;10.73;2.20;;;;;;;13.45;79.58;96426.56;5092100;28;39954;-77
2024/04/01 05:31:25;;;;;;;7.33;2.80;;;;;;;13.46;79.35;96422.91;5108634;28;40840;-78
2024/04/01 05:33:52;;;;;;;6.23;2.67;;;;;;;13.48;79.03;96422.72;5092107;28;42863;-77
2024/04/01 05:36:19;;;;;;;6.63;2.13;;;;;;;13.52;78.61;96416.06;5092052;28;41200;-77
2024/04/01 05:38:46;;;;;;;6.93;2.47;;;;;;;13.55;78.49;96407.75;5091592;28;39200;-77
2024/04/01 05:41:14;;;;;;;3.77;2.13;;;;;;;13.57;78.01;96413.72;5093373;28;42056;-77
2024/04/01 05:43:42;;;;;;;3.33;1.67;;;;;;;13.57;77.84;96419.03;5090520;28;42590;-77
2024/04/01 05:46:08;;;;;;;8.97;2.97;;;;;;;13.45;78.88;96396.50;5092925;28;43147;-77
2024/04/01 05:48:35;;;;;;;7.70;2.47;;;;;;;13.57;79.00;96413.72;5091590;28;39968;-77
2024/04/01 05:51:02;;;;;;;8.30;2.90;;;;;;;13.60;78.57;96413.34;5126107;27;41956;-77
2024/04/01 05:53:29;;;;;;;7.83;2.23;;;;;;;13.62;78.16;96408.69;5091721;28;42735;-78
2024/04/01 05:55:56;;;;;;;6.60;2.30;;;;;;;13.66;78.14;96402.03;5092843;28;42032;-77
2024/04/01 05:58:25;;;;;;;7.90;2.07;;;;;;;13.68;77.79;96397.38;5125970;27;40992;-78
2024/04/01 06:00:51;;;;;;;5.23;1.97;;;;;;;13.72;77.68;96427.13;5091241;28;40724;-78
2024/04/01 06:03:19;;;;;;;7.73;2.40;;;;;;;13.72;77.54;96438.59;5091242;28;41662;-77
2024/04/01 06:05:45;;;;;;;6.47;2.20;;;;;;;13.71;77.26;96447.56;5074708;28;41354;-79
2024/04/01 06:08:12;;;;;;;9.27;2.37;;;;;;;13.73;77.54;96447.34;5093113;28;40251;-77
2024/04/01 06:10:39;;;;;;;8.53;2.90;;;;;;;13.73;78.14;96455.34;5092723;28;41473;-77
2024/04/01 06:13:07;;;;;;;6.30;2.50;;;;;;;13.72;78.32;96453.72;5125561;27;42749;-77
2024/04/01 06:15:34;;;;;;;8.17;2.47;;;;;;;13.73;78.40;96455.34;5091531;28;42247;-77
2024/04/01 06:18:02;;;;;;;7.43;2.37;;;;;;;13.71;77.97;96431.59;5125667;27;40172;-77
2024/04/01 06:20:29;;;;;;;8.83;3.07;;;;;;;13.68;77.91;96431.13;5091362;28;41928;-77
2024/04/01 06:22:56;;;;;;;6.50;2.30;;;;;;;13.82;78.01;96444.50;5092229;28;43177;-76
2024/04/01 06:25:23;;;;;;;11.90;2.53;;;;;;;13.85;77.49;96449.47;5091189;28;41034;-77
2024/04/01 06:27:51;;;;;;;7.57;2.83;;;;;;;13.85;77.39;96444.13;5074144;28;39202;-77
2024/04/01 06:30:17;;;;;;;8.63;2.80;;;;;;;13.89;77.42;96449.94;5091176;28;41719;-77
2024/04/01 06:32:46;;;;;;;3.67;1.83;;;;;;;13.93;77.15;96445.94;5090808;28;42060;-77
2024/04/01 06:35:12;;;;;;;4.87;1.53;;;;;;;13.99;77.05;96454.03;5092195;28;42402;-77
2024/04/01 06:37:40;;;;;;;6.30;2.00;;;;;;;14.06;77.03;96450.69;5108084;28;39174;-77
2024/04/01 06:40:07;;;;;;;11.37;2.67;;;;;;;14.12;76.79;96460.59;5107997;28;41677;-77
2024/04/01 06:42:35;;;;;;;9.40;2.23;;;;;;;14.15;76.67;96455.78;5073529;28;43421;-77
2024/04/01 06:45:01;;;;;;;3.67;2.03;;;;;;;14.16;76.51;96445.94;5125258;27;42322;-77
2024/04/01 06:47:29;;;;;;;9.97;2.80;;;;;;;14.10;77.83;96441.31;5073649;28;40406;-77
2024/04/01 06:49:57;;;;;;;9.57;2.50;;;;;;;14.20;77.40;96460.56;5090937;28;40887;-77
2024/04/01 06:52:24;;;;;;;9.43;3.27;;;;;;;14.23;78.02;96453.03;5073494;28;43969;-77
2024/04/01 06:54:51;;;;;;;12.27;2.93;;;;;;;14.28;77.90;96465.84;5073547;28;42226;-77
2024/04/01 06:57:18;;;;;;;7.93;2.90;;;;;;;14.32;78.33;96504.41;5090585;28;40692;-77
2024/04/01 06:59:45;;;;;;;9.60;2.80;;;;;;;14.30;79.03;96496.59;5090393;28;43974;-78
2024/04/01 07:02:13;;;;;;;12.30;2.70;;;;;;;14.42;79.18;96498.88;5090129;28;44045;-77
2024/04/01 07:04:40;;;;;;;6.97;2.77;;;;;;;14.44;78.80;96487.06;5093082;28;21004;-77
2024/04/01 07:07:09;;;;;;;9.17;2.30;;;;;;;14.53;78.29;96507.28;5124965;27;40666;-77
2024/04/01 07:09:36;;;;;;;7.53;2.33;;;;;;;14.53;78.11;96512.59;5090934;28;42684;-77
2024/04/01 07:12:03;;;;;;;5.13;1.90;;;;;;;14.52;77.92;96521.59;5107358;28;41685;-77
2024/04/01 07:14:30;;;;;;;4.37;1.60;;;;;;;14.47;77.68;96534.59;5091767;28;42361;-77
2024/04/01 07:16:57;;;;;;;1.23;1.10;;;;;;;14.37;77.84;96550.78;5090549;28;40113;-78
2024/04/01 07:19:24;;;;;;;4.97;1.17;;;;;;;14.28;78.13;96551.00;5073640;28;41661;-77
2024/04/01 07:21:51;;;;;;;3.87;1.20;;;;;;;14.24;78.82;96560.34;5091817;28;43661;-77
2024/04/01 07:24:19;;;;;;;3.33;1.27;;;;;;;14.18;78.81;96550.41;5091633;28;42034;-77
2024/04/01 07:26:46;;;;;;;4.43;0.90;;;;;;;14.15;79.20;96561.41;5090345;28;40205;-77
2024/04/01 07:29:13;;;;;;;4.83;1.50;;;;;;;14.08;79.46;96579.06;5091354;28;41444;-78
2024/04/01 07:31:42;;;;;;;5.87;1.30;;;;;;;13.99;80.41;96580.91;5107662;28;41737;-78
2024/04/01 07:34:08;;;;;;;2.67;1.20;;;;;;;13.86;81.11;96578.81;5091271;28;43102;-77
2024/04/01 07:36:37;;;;;;;2.30;1.10;;;;;;;13.73;82.85;96589.16;5090373;28;40031;-77
2024/04/01 07:39:03;;;;;;;3.13;1.43;;;;;;;13.57;84.61;96578.59;5073128;28;40668;-77
2024/04/01 07:41:32;;;;;;;1.93;1.17;;;;;;;13.47;86.13;96581.44;5090046;28;43000;-76
2024/04/01 07:43:58;;;;;;;1.20;1.00;;;;;;;13.37;87.64;96562.16;5090946;28;43171;-77
2024/04/01 07:46:26;;;;;;;1.90;1.10;;;;;;;13.27;88.84;96557.03;5091269;28;39736;-77
2024/04/01 07:48:52;;;;;;;2.00;1.20;;;;;;;13.19;89.46;96554.41;5123960;27;42433;-77
2024/04/01 07:51:20;;;;;;;4.67;1.30;;;;;;;13.17;90.90;96575.00;5089977;28;42893;-77
2024/04/01 07:53:46;;;;;;;4.23;1.53;;;;;;;13.16;91.79;96576.00;5106627;28;42167;-76
2024/04/01 07:56:13;;;;;;;3.67;1.17;;;;;;;13.11;91.51;96557.00;5106515;28;39535;-77
2024/04/01 07:58:41;;;;;;;1.70;1.30;;;;;;;13.12;92.03;96568.47;5090563;28;41755;-76
2024/04/01 08:01:09;;;;;;;1.93;1.63;;;;;;;12.99;93.08;96557.53;5123598;27;42707;-76
2024/04/01 08:03:35;;;;;;;2.13;1.50;;;;;;;12.99;93.73;96563.66;5089624;28;43345;-76
2024/04/01 08:06:03;;;;;;;1.37;1.23;;;;;;;12.85;93.80;96548.41;5090904;28;39941;-76
2024/04/01 08:08:30;;;;;;;1.43;1.33;;;;;;;12.94;94.38;96587.25;5075500;28;40619;-76
2024/04/01 08:10:57;;;;;;;1.63;1.37;;;;;;;12.88;94.88;96577.28;5094169;28;42653;-77
2024/04/01 08:13:24;;;;;;;1.70;1.60;;;;;;;12.83;95.97;96574.31;5075613;28;41710;-76
2024/04/01 08:16:03;;;;;;;2.77;1.47;;;;;;;12.77;96.86;96569.66;5094263;28;39771;-77
2024/04/01 08:18:29;;;;;;;3.80;1.37;;;;;;;12.80;96.49;96569.31;5109399;28;42136;-76
2024/04/01 08:20:58;;;;;;;4.80;1.30;;;;;;;12.85;95.88;96551.91;5075666;28;42835;-76
2024/04/01 08:23:25;;;;;;;2.57;1.20;;;;;;;12.93;95.46;96559.88;5093412;28;42897;-77
2024/04/01 08:25:52;;;;;;;2.57;1.13;;;;;;;12.95;95.73;96560.53;5126834;27;40557;-76
2024/04/01 08:28:19;;;;;;;1.40;1.20;;;;;;;12.99;95.44;96570.81;5092400;28;42728;-76
2024/04/01 08:30:46;;;;;;;1.30;1.20;;;;;;;13.00;94.79;96559.19;5126791;27;43560;-77
2024/04/01 08:33:16;;;;;;;1.73;1.10;;;;;;;13.05;94.87;96584.28;5075700;28;41072;-78
2024/04/01 08:35:44;;;;;;;2.60;1.20;;;;;;;13.05;95.29;96600.22;5075887;28;41221;-76
2024/04/01 08:38:10;;;;;;;4.10;1.47;;;;;;;13.07;96.16;96614.16;5093659;28;41521;-76
2024/04/01 08:40:44;;;;;;;3.20;1.43;;;;;;;13.05;97.19;96620.63;5092607;28;43294;-76
2024/04/01 08:43:14;;;;;;;2.10;1.30;;;;;;;13.02;97.75;96632.41;5092343;28;43448;-77
2024/04/01 08:45:43;;;;;;;3.17;1.40;;;;;;;12.84;98.29;96613.16;5092159;28;38726;-77
2024/04/01 08:48:12;;;;;;;2.30;1.60;;;;;;;12.95;98.87;96639.41;5093368;28;42209;-78
2024/04/01 08:50:51;;;;;;;2.23;1.00;;;;;;;12.94;99.05;96645.69;5093730;28;43701;-77
2024/04/01 08:53:28;;;;;;;1.83;1.40;;;;;;;12.90;99.71;96661.13;5109377;28;42411;-77
2024/04/01 08:55:55;;;;;;;1.33;1.23;;;;;;;12.92;99.48;96669.78;5090770;28;40844;-76
2024/04/01 08:58:22;;;;;;;2.83;1.40;;;;;;;12.84;99.96;96674.25;5109315;28;40976;-77
2024/04/01 09:00:50;;;;;;;5.60;1.40;;;;;;;12.90;99.82;96708.09;5092153;28;43733;-77
2024/04/01 09:03:17;;;;;;;1.63;1.20;;;;;;;12.85;100.00;96713.94;5091677;28;42245;-78
2024/04/01 09:05:46;;;;;;;1.83;1.27;;;;;;;12.84;100.00;96719.41;5093812;28;40867;-79
2024/04/01 09:08:13;;;;;;;1.43;0.90;;;;;;;12.84;100.00;96730.03;5075534;28;40885;-77
2024/04/01 09:10:40;;;;;;;1.97;1.20;;;;;;;12.81;100.00;96733.81;5092229;28;44253;-78
2024/04/01 09:13:13;;;;;;;2.00;1.30;;;;;;;12.82;100.00;96755.91;5109008;28;41659;-78
2024/04/01 09:15:41;;;;;;;1.30;1.13;;;;;;;12.81;100.00;96767.53;5092323;28;41800;-77
2024/04/01 09:18:11;;;;;;;1.10;0.80;;;;;;;12.75;100.00;96773.47;5092129;28;42067;-79
2024/04/01 09:20:40;;;;;;;2.97;1.53;;;;;;;12.74;100.00;96787.72;5092451;28;43133;-77
2024/04/01 09:23:09;;;;;;;1.13;0.73;;;;;;;12.71;100.00;96793.38;5126041;27;42938;-78
2024/04/01 09:25:37;;;;;;;0.70;0.60;;;;;;;12.66;100.00;96817.75;5109166;28;40560;-79
2024/04/01 09:28:04;;;;;;;1.60;0.90;;;;;;;12.68;100.00;96823.72;5091937;28;41136;-78
2024/04/01 09:30:31;;;;;;;1.43;0.63;;;;;;;12.72;100.00;96833.06;5091936;28;43000;-77
2024/04/01 09:32:59;;;;;;;1.97;0.70;;;;;;;12.75;100.00;96832.72;5091808;28;41463;-80
2024/04/01 09:35:27;;;;;;;1.03;0.53;;;;;;;12.84;100.00;96820.34;5074857;28;41924;-80
2024/04/01 09:37:54;;;;;;;0.90;0.70;;;;;;;12.87;100.00;96831.44;5074717;28;42602;-78
2024/04/01 09:40:23;;;;;;;1.00;0.40;;;;;;;12.88;99.47;96845.56;5093459;28;42789;-77
2024/04/01 09:42:54;;;;;;;0.93;0.57;;;;;;;12.84;100.00;96862.84;5092775;28;42588;-78
2024/04/01 09:45:22;;;;;;;1.60;0.50;;;;;;;12.87;99.03;96862.50;5089915;28;40042;-79
2024/04/01 09:47:49;;;;;;;0.60;0.30;;;;;;;12.90;98.99;96870.16;5091906;28;41874;-77
2024/04/01 09:50:18;;;;;;;0.30;0.30;;;;;;;12.94;99.13;96884.78;5093224;28;43793;-77
2024/04/01 09:52:45;;;;;;;0.30;0.30;;;;;;;12.92;98.22;96908.03;5091832;28;42208;-79
2024/04/01 09:55:20;;;;;;;0.30;0.30;;;;;;;12.89;97.46;96922.44;5092212;28;38336;-80
2024/04/01 09:58:21;;;;;;;0.37;0.37;;;;;;;12.92;97.35;96926.63;5091816;28;41167;-76
2024/04/01 10:00:52;;;;;;;0.30;0.20;;;;;;;13.13;96.22;96923.56;5074769;28;41849;-76
2024/04/01 10:03:51;;;;;;;1.33;0.43;;;;;;;13.50;94.43;96925.91;5074541;28;42778;-82
2024/04/01 10:06:48;;;;;;;0.30;0.30;;;;;;;13.96;91.86;96930.69;5122954;27;40347;-80
2024/04/01 10:09:59;;;;;;;0.77;0.30;;;;;;;14.35;90.52;96951.34;5037329;28;41849;-77
2024/04/01 10:13:18;;;;;;;0.40;0.40;;;;;;;14.74;86.66;96957.69;5126228;27;42520;-79
2024/04/01 10:16:21;;;;;;;0.30;0.30;;;;;;;15.41;84.55;96960.06;5088953;28;43004;-79
2024/04/01 10:19:15;;;;;;;0.20;0.20;;;;;;;16.29;81.78;96941.09;5074292;28;38937;-81
2024/04/01 10:22:13;;;;;;;0.30;0.30;;;;;;;16.99;81.87;96952.38;5089625;28;42622;-78
2024/04/01 10:25:08;;;;;;;0.20;0.20;;;;;;;17.64;75.96;96961.53;5091073;28;42653;-79
2024/04/01 10:28:04;;;;;;;0.77;0.30;;;;;;;18.10;72.54;96965.59;5090100;28;42450;-78
2024/04/01 10:30:53;;;;;;;0.40;0.37;;;;;;;18.36;71.02;96972.28;5063663;28;38880;-78
2024/04/01 10:33:48;;;;;;;0.30;0.30;;;;;;;18.06;68.72;96983.06;5091107;28;42057;-77
2024/04/01 10:36:26;;;;;;;0.80;0.37;;;;;;;17.88;68.17;96991.53;5091147;28;42827;-78
2024/04/01 10:39:22;;;;;;;0.40;0.40;;;;;;;17.94;69.21;96997.97;5090621;28;42142;-79
2024/04/01 10:42:33;;;;;;;0.77;0.30;;;;;;;17.88;69.18;97012.94;5088123;28;40134;-77
2024/04/01 10:45:22;;;;;;;0.33;0.30;;;;;;;17.73;67.11;97019.31;5091062;28;40732;-79
2024/04/01 10:48:25;;;;;;;0.40;0.40;;;;;;;17.52;67.11;97014.69;5090932;28;43625;-77
2024/04/01 10:51:36;;;;;;;0.43;0.33;;;;;;;17.63;66.17;97016.06;5032687;28;44151;-78
2024/04/01 10:54:05;;;;;;;0.30;0.30;;;;;;;17.81;66.52;97016.53;5073864;28;41672;-77
2024/04/01 10:57:19;;;;;;;0.37;0.30;;;;;;;18.01;65.99;97023.00;5091846;28;41640;-78
2024/04/01 11:00:12;;;;;;;0.30;0.30;;;;;;;18.35;64.72;97025.03;5090889;28;41745;-76
2024/04/01 11:03:34;;;;;;;0.40;0.40;;;;;;;18.55;63.90;97026.06;5087890;28;42322;-76
2024/04/01 11:06:38;;;;;;;1.10;0.40;;;;;;;18.77;62.51;97050.25;5073665;28;41192;-77
2024/04/01 11:09:19;;;;;;;0.20;0.20;;;;;;;18.79;59.42;97083.88;5073359;28;42209;-77
2024/04/01 11:11:55;;;;;;;0.30;0.30;;;;;;;18.69;60.26;97069.13;5087196;28;42713;-77
2024/04/01 11:14:22;;;;;;;0.80;0.40;;;;;;;18.65;59.30;97068.72;5090335;28;44023;-77
2024/04/01 11:16:54;;;;;;;0.90;0.40;;;;;;;18.46;58.18;97091.53;5073296;28;41284;-77
2024/04/01 11:19:57;;;;;;;0.30;0.30;;;;;;;18.17;60.62;97089.75;5107050;28;39979;-77
2024/04/01 11:22:40;;;;;;;0.40;0.40;;;;;;;18.03;61.31;97085.25;5083457;28;43001;-77
2024/04/01 11:25:14;;;;;;;0.47;0.23;;;;;;;17.77;60.87;97106.28;5088132;28;42521;-77
2024/04/01 11:27:59;;;;;;;0.27;0.27;;;;;;;17.59;61.17;97099.41;5088841;28;40076;-77
2024/04/01 11:30:34;;;;;;;0.20;0.20;;;;;;;17.30;62.20;97085.97;5088020;28;41760;-77
2024/04/01 11:33:06;;;;;;;0.20;0.20;;;;;;;17.11;62.55;97107.88;5089523;28;43047;-77
2024/04/01 11:35:42;;;;;;;0.60;0.40;;;;;;;16.91;63.44;97109.38;5088201;28;42463;-76
2024/04/01 11:38:26;;;;;;;0.30;0.30;;;;;;;16.76;63.63;97112.81;5089583;28;40460;-77
2024/04/01 11:40:54;;;;;;;0.50;0.50;;;;;;;16.42;62.18;97131.00;5108302;27;43450;-77
2024/04/01 11:43:25;;;;;;;0.30;0.30;;;;;;;15.99;64.40;97103.81;5076057;28;41925;-77
2024/04/01 11:45:53;;;;;;;1.33;0.40;;;;;;;15.80;64.57;97115.72;5093193;28;41961;-76
2024/04/01 11:48:21;;;;;;;0.30;0.30;;;;;;;15.70;65.62;97115.06;5075844;28;41102;-76